Ariton, AL

12:00 AM CST on November 23, 2014 (GMT -0600)
Fort Rucker / Ozark | Change Station
CLOSE
Current Station
Airport
Location: Fort Rucker / Ozark,
Elevation: 243 ft
Nearby Weather Stations

Elev 243 ft 31.36 °N, 85.75 °W | Updated 7 minutes ago

Overcast
Overcast
60 °F
Feels Like 60 °F
N
6
Wind Variable Wind from East

Today
High -- | Low -- °F
--% Chance of Precip.
Yesterday
High -- | Low -- °F
Precip. -- in
6:17 AM 4:40 PM
New Moon, 1% visible
Pressure 30.04 in
Visibility 7.0 miles
Clouds Overcast 900 ft
Dew Point 58 °F
Humidity 93%
Rainfall 0.07 in
Snow Depth Not available.
UV 0 out of 12
Pollen 1.40 out of 12
Air Quality Not available.
Flu Activity Not available.
METAR KLOR 230553Z AUTO 10005KT 7SM -RA OVC009 16/14 A3004 RMK AO2 RAB42 CIG 006V013 SLP171 P0002 60006 T01560144 10156 20150 401940039 58021 TSNO $

More Conditions Fewer Conditions

Pressure 30.04 in
Visibility 7.0 miles
Clouds Overcast 900 ft
Dew Point 58 °F
Humidity 93%
Rainfall 0.07 in
Snow Depth Not available.
UV 0 out of 12
Pollen 1.40 out of 12
Air Quality Not available.
Flu Activity Not available.
METAR KLOR 230553Z AUTO 10005KT 7SM -RA OVC009 16/14 A3004 RMK AO2 RAB42 CIG 006V013 SLP171 P0002 60006 T01560144 10156 20150 401940039 58021 TSNO $

More Conditions Fewer Conditions

10-Day Weather Forecast

Almanac

Astronomy

Nov. 23, 2014 Rise Set
Actual Time
Civil Twilight
Nautical Twilight
Astronomical Twilight
Moon
Length of Visible Light
Length of Day
Tomorrow will be .
, % of the Moon is Illuminated

Today's Extremes

State Highs State Lows

Community

WunderPhotos

Upload Photos

1,773,019 photos uploaded!

WunderBlogs® & News

Nearby

Air Quality

  Air Quality AQ Index Pollutant
Not available.

Snow Depth

Station Depth Elevation

Earthquake Activity

City Distance Mag. Time & Date
Minimum magnitude displayed is 2.5.

Coastal Water Temperatures

Place Temperature

Nearby Weather Stations